Time;durP1;ratioP1;P1;durP2;ratioP2;P2;SDS_P1;SDS_P2;PMS_P1;PMS_P2;Temp;Humidity;BMP_temperature;BMP_pressure;BME280_temperature;BME280_humidity;BME280_pressure;Samples;Min_cycle;Max_cycle;Signal;HPM_P1;HPM_P2
2022/06/19 00:00:40;;;;;;;9.73;4.87;;;25.20;56.50;;;;;;5064887;28;21421;-50
2022/06/19 00:03:13;;;;;;;10.27;4.90;;;25.20;56.60;;;;;;5049043;28;20513;-50
2022/06/19 00:05:41;;;;;;;12.27;5.10;;;25.20;56.90;;;;;;5059355;28;21335;-50
2022/06/19 00:08:08;;;;;;;10.10;5.03;;;25.10;57.00;;;;;;5045986;28;20469;-50
2022/06/19 00:10:35;;;;;;;14.73;5.93;;;25.10;57.00;;;;;;5063106;28;20466;-50
2022/06/19 00:13:01;;;;;;;11.23;5.57;;;25.10;56.90;;;;;;5065212;28;20457;-50
2022/06/19 00:15:28;;;;;;;10.73;4.00;;;25.00;56.70;;;;;;5061604;28;20464;-50
2022/06/19 00:17:55;;;;;;;8.77;4.60;;;25.00;57.00;;;;;;5049399;28;20481;-50
2022/06/19 00:20:22;;;;;;;11.60;4.47;;;25.00;57.40;;;;;;5050001;28;21118;-50
2022/06/19 00:22:49;;;;;;;12.43;5.27;;;25.00;57.60;;;;;;5046492;28;20578;-50
2022/06/19 00:25:16;;;;;;;15.50;5.23;;;24.90;57.50;;;;;;5063712;28;20452;-50
2022/06/19 00:27:42;;;;;;;9.70;4.60;;;24.90;57.70;;;;;;5060125;28;20699;-50
2022/06/19 00:30:11;;;;;;;7.50;4.53;;;24.80;57.80;;;;;;5050050;28;20467;-50
2022/06/19 00:32:39;;;;;;;9.97;4.30;;;24.80;57.90;;;;;;5048492;28;20465;-50
2022/06/19 00:35:06;;;;;;;9.43;4.97;;;24.80;57.90;;;;;;5065442;28;20543;-50
2022/06/19 00:37:34;;;;;;;8.23;4.67;;;24.80;58.20;;;;;;5056520;28;20488;-50
2022/06/19 00:40:05;;;;;;;11.20;4.70;;;24.80;58.20;;;;;;5059060;28;20457;-50
2022/06/19 00:42:31;;;;;;;13.23;5.13;;;24.80;58.30;;;;;;5063291;28;20476;-50
2022/06/19 00:44:58;;;;;;;8.10;4.70;;;24.80;58.30;;;;;;5060458;28;20464;-50
2022/06/19 00:47:27;;;;;;;18.77;5.00;;;24.70;58.30;;;;;;5062423;28;20971;-50
2022/06/19 00:49:57;;;;;;;9.83;4.10;;;24.70;58.50;;;;;;5063701;28;20457;-50
2022/06/19 00:52:30;;;;;;;8.17;4.97;;;24.70;58.50;;;;;;5061948;28;20445;-50
2022/06/19 00:55:07;;;;;;;7.60;4.40;;;24.60;58.60;;;;;;5062038;28;20450;-50
2022/06/19 00:57:38;;;;;;;9.07;4.80;;;24.60;59.00;;;;;;5047897;28;20452;-50
2022/06/19 01:00:23;;;;;;;8.80;4.63;;;24.60;59.10;;;;;;5040225;28;20491;-50
2022/06/19 01:02:57;;;;;;;13.57;5.67;;;24.50;59.30;;;;;;5046690;28;20463;-50
2022/06/19 01:05:25;;;;;;;8.87;5.40;;;24.50;59.20;;;;;;5059867;28;20488;-50
2022/06/19 01:07:54;;;;;;;15.00;5.93;;;24.50;58.80;;;;;;5046252;28;20460;-50
2022/06/19 01:10:20;;;;;;;13.00;5.30;;;24.50;58.70;;;;;;5045085;28;20918;-50
2022/06/19 01:12:47;;;;;;;10.53;5.27;;;24.50;58.30;;;;;;5045617;28;20907;-50
2022/06/19 01:15:17;;;;;;;10.83;4.97;;;24.50;58.00;;;;;;5042774;28;20480;-50
2022/06/19 01:17:51;;;;;;;15.13;6.07;;;24.50;57.40;;;;;;5062679;28;20482;-50
2022/06/19 01:20:19;;;;;;;7.50;5.60;;;24.60;57.20;;;;;;5058774;28;20542;-49
2022/06/19 01:23:04;;;;;;;11.80;6.27;;;24.60;56.80;;;;;;5060984;28;20929;-50
2022/06/19 01:25:33;;;;;;;10.83;5.33;;;24.60;56.70;;;;;;5044652;28;21052;-50
2022/06/19 01:31:01;;;;;;;10.30;5.30;;;24.60;57.90;;;;;;5065658;28;20973;-50
2022/06/19 01:33:43;;;;;;;9.23;4.80;;;24.70;58.10;;;;;;5058435;28;20464;-49
2022/06/19 01:36:13;;;;;;;12.70;4.97;;;24.70;57.80;;;;;;5043865;28;20547;-49
2022/06/19 01:38:43;;;;;;;12.33;4.30;;;24.70;56.60;;;;;;5055992;28;21097;-50
2022/06/19 01:41:18;;;;;;;13.93;5.53;;;24.70;57.00;;;;;;5061206;28;20540;-50
2022/06/19 01:43:47;;;;;;;14.67;4.77;;;24.80;56.90;;;;;;5062191;28;21149;-50
2022/06/19 01:46:16;;;;;;;17.20;5.90;;;24.80;56.90;;;;;;5059110;28;20458;-50
2022/06/19 01:48:43;;;;;;;10.33;4.83;;;24.70;57.00;;;;;;5044419;28;20978;-50
2022/06/19 01:51:10;;;;;;;14.53;4.90;;;24.60;57.10;;;;;;5057166;28;20886;-50
2022/06/19 01:53:45;;;;;;;10.83;5.40;;;24.60;57.20;;;;;;5038650;28;20462;-49
2022/06/19 01:56:13;;;;;;;10.53;5.67;;;24.60;57.00;;;;;;5034613;28;20559;-50
2022/06/19 01:58:43;;;;;;;18.03;6.17;;;24.60;57.30;;;;;;5038563;28;20499;-49
2022/06/19 02:01:11;;;;;;;8.97;5.33;;;24.60;57.20;;;;;;5035500;28;20482;-49
2022/06/19 02:03:51;;;;;;;13.67;5.40;;;24.60;57.10;;;;;;5056225;28;20461;-49
2022/06/19 02:06:26;;;;;;;17.57;5.17;;;24.60;57.10;;;;;;5055751;28;20506;-50
2022/06/19 02:08:54;;;;;;;13.30;5.60;;;24.60;57.10;;;;;;5037406;28;20909;-50
2022/06/19 02:11:22;;;;;;;16.87;4.60;;;24.60;57.30;;;;;;5060290;28;20909;-50
2022/06/19 02:13:49;;;;;;;8.23;5.07;;;24.50;57.70;;;;;;5052949;28;20465;-50
2022/06/19 02:16:20;;;;;;;7.90;4.90;;;24.50;57.80;;;;;;5029583;28;20463;-50
2022/06/19 02:18:49;;;;;;;14.03;5.53;;;24.40;58.00;;;;;;5053848;28;20570;-50
2022/06/19 02:21:22;;;;;;;8.90;5.30;;;24.40;58.20;;;;;;5049184;28;20467;-50
2022/06/19 02:23:49;;;;;;;11.23;5.47;;;24.30;58.30;;;;;;5056888;28;20961;-50
2022/06/19 02:26:17;;;;;;;8.80;4.83;;;24.30;58.50;;;;;;5043523;28;20479;-50
2022/06/19 02:28:48;;;;;;;8.87;5.50;;;24.30;58.60;;;;;;5040106;28;20956;-50
2022/06/19 02:31:16;;;;;;;11.90;5.40;;;24.30;58.40;;;;;;5057935;28;20462;-47
2022/06/19 02:33:58;;;;;;;8.53;5.47;;;24.30;58.60;;;;;;5051721;28;20467;-47
2022/06/19 02:36:48;;;;;;;12.53;5.20;;;24.30;58.80;;;;;;5045678;28;20507;-47
2022/06/19 02:39:43;;;;;;;10.50;4.57;;;24.20;59.20;;;;;;5041314;28;20577;-47
2022/06/19 02:42:27;;;;;;;12.70;4.43;;;24.20;59.00;;;;;;5058917;28;20462;-50
2022/06/19 02:45:04;;;;;;;12.27;5.23;;;24.10;59.30;;;;;;5040362;28;20824;-50
2022/06/19 02:47:35;;;;;;;13.03;5.07;;;24.10;59.60;;;;;;5051034;28;20493;-50
2022/06/19 02:50:04;;;;;;;12.03;6.10;;;24.00;59.90;;;;;;5052493;28;20482;-50
2022/06/19 02:52:32;;;;;;;19.50;6.20;;;24.00;59.60;;;;;;5057248;28;20470;-50
2022/06/19 02:54:59;;;;;;;10.23;5.50;;;24.00;59.90;;;;;;5054010;28;20466;-50
2022/06/19 02:57:27;;;;;;;11.83;5.60;;;23.90;60.20;;;;;;5061143;28;20465;-50
2022/06/19 02:59:54;;;;;;;11.53;7.20;;;23.90;60.30;;;;;;5035739;28;20987;-50
2022/06/19 03:02:21;;;;;;;10.70;5.70;;;23.90;60.40;;;;;;5032131;28;20461;-50
2022/06/19 03:04:53;;;;;;;10.30;5.33;;;23.90;60.40;;;;;;5056445;28;20464;-50
2022/06/19 03:07:20;;;;;;;7.00;4.77;;;23.80;60.40;;;;;;5054857;28;20580;-50
2022/06/19 03:09:47;;;;;;;8.73;6.03;;;23.80;60.60;;;;;;5056572;28;20572;-50
2022/06/19 03:12:14;;;;;;;13.23;6.70;;;23.80;60.50;;;;;;5058964;28;20983;-50
2022/06/19 03:14:41;;;;;;;13.80;6.53;;;23.80;60.70;;;;;;5059580;28;20453;-50
2022/06/19 03:17:15;;;;;;;11.77;5.90;;;23.80;60.80;;;;;;5044671;28;20491;-50
2022/06/19 03:19:43;;;;;;;11.53;5.43;;;23.70;60.80;;;;;;5062008;28;20487;-50
2022/06/19 03:22:11;;;;;;;13.63;6.60;;;23.70;61.00;;;;;;5056087;28;21015;-50
2022/06/19 03:24:39;;;;;;;14.80;5.87;;;23.70;61.10;;;;;;5056194;28;20478;-50
2022/06/19 03:27:11;;;;;;;10.67;5.40;;;23.70;61.10;;;;;;5032205;28;20473;-50
2022/06/19 03:29:38;;;;;;;12.10;6.00;;;23.70;61.30;;;;;;5058839;28;20480;-49
2022/06/19 03:32:05;;;;;;;14.27;6.07;;;23.60;61.20;;;;;;5051419;28;20903;-50
2022/06/19 03:34:32;;;;;;;16.70;5.37;;;23.60;61.40;;;;;;5042090;28;20519;-50
2022/06/19 03:36:59;;;;;;;8.43;6.00;;;23.60;61.60;;;;;;5059347;28;20456;-50
2022/06/19 03:39:26;;;;;;;8.50;5.30;;;23.60;61.70;;;;;;5057616;28;20481;-50
2022/06/19 03:41:53;;;;;;;11.50;5.20;;;23.60;61.50;;;;;;5046342;28;20548;-50
2022/06/19 03:44:20;;;;;;;9.33;5.27;;;23.60;61.50;;;;;;5058001;28;20468;-50
2022/06/19 03:46:47;;;;;;;11.60;5.43;;;23.50;61.80;;;;;;5058278;28;20871;-50
2022/06/19 03:49:14;;;;;;;15.47;5.50;;;23.50;61.60;;;;;;5042817;28;20465;-50
2022/06/19 03:51:41;;;;;;;17.93;6.40;;;23.50;61.70;;;;;;5056751;28;20656;-50
2022/06/19 03:54:09;;;;;;;12.17;4.87;;;23.50;62.10;;;;;;5039004;28;20464;-50
2022/06/19 03:56:36;;;;;;;9.30;6.10;;;23.50;62.20;;;;;;5058857;28;20453;-50
2022/06/19 03:59:12;;;;;;;11.30;6.40;;;23.50;62.20;;;;;;5059759;28;20569;-50
2022/06/19 04:01:40;;;;;;;17.27;5.60;;;23.50;62.40;;;;;;5060935;28;20461;-49
2022/06/19 04:04:09;;;;;;;10.40;6.67;;;23.50;62.60;;;;;;5045869;28;20845;-50
2022/06/19 04:06:40;;;;;;;12.13;5.40;;;23.50;62.70;;;;;;5056358;28;20449;-50
2022/06/19 04:09:09;;;;;;;11.93;6.03;;;23.50;62.80;;;;;;5061599;28;20457;-50
2022/06/19 04:11:36;;;;;;;11.30;4.93;;;23.50;62.90;;;;;;5042207;28;20551;-50
2022/06/19 04:14:04;;;;;;;8.17;5.53;;;23.50;62.80;;;;;;5043927;28;20484;-49
2022/06/19 04:16:32;;;;;;;7.20;4.80;;;23.50;62.80;;;;;;5053520;28;20492;-49
2022/06/19 04:19:02;;;;;;;10.70;5.30;;;23.50;63.00;;;;;;5058339;28;21103;-50
2022/06/19 04:21:31;;;;;;;9.90;4.83;;;23.50;63.20;;;;;;5041175;28;20480;-50
2022/06/19 04:24:03;;;;;;;9.40;5.30;;;23.50;63.20;;;;;;5046190;28;20944;-50
2022/06/19 04:26:32;;;;;;;10.30;5.73;;;23.50;63.30;;;;;;5059820;28;21084;-49
2022/06/19 04:28:59;;;;;;;8.67;4.70;;;23.50;63.40;;;;;;5058200;28;21027;-50
2022/06/19 04:31:27;;;;;;;20.33;6.40;;;23.60;63.30;;;;;;5043020;28;21338;-49
2022/06/19 04:33:53;;;;;;;22.03;7.10;;;23.60;63.50;;;;;;5059269;28;20992;-50
2022/06/19 04:36:24;;;;;;;10.90;5.37;;;23.60;63.90;;;;;;5058853;28;20549;-50
2022/06/19 04:38:54;;;;;;;9.60;4.63;;;23.70;62.80;;;;;;5061541;28;20572;-50
2022/06/19 04:41:28;;;;;;;7.83;5.50;;;23.70;62.20;;;;;;5056114;28;20543;-50
2022/06/19 04:43:57;;;;;;;16.07;5.87;;;23.60;62.20;;;;;;5057986;28;20891;-50
2022/06/19 04:46:24;;;;;;;15.80;5.83;;;23.60;62.40;;;;;;5059643;28;20453;-50
2022/06/19 04:48:51;;;;;;;14.17;5.70;;;23.60;62.60;;;;;;5034601;28;20465;-50
2022/06/19 04:51:19;;;;;;;8.90;5.77;;;23.60;62.90;;;;;;5061005;28;20971;-50
2022/06/19 04:53:46;;;;;;;16.07;5.90;;;23.60;63.10;;;;;;5063380;28;20545;-49
2022/06/19 04:56:15;;;;;;;16.40;6.90;;;23.60;63.20;;;;;;5061105;28;20536;-50
2022/06/19 04:58:42;;;;;;;14.37;5.37;;;23.60;63.50;;;;;;5047223;28;20603;-49
2022/06/19 05:01:30;;;;;;;11.87;5.70;;;23.70;63.70;;;;;;5045659;28;20513;-50
2022/06/19 05:04:02;;;;;;;12.10;4.87;;;23.70;63.80;;;;;;5039806;28;20879;-49
2022/06/19 05:06:29;;;;;;;8.00;4.70;;;23.70;63.90;;;;;;5064019;28;20892;-50
2022/06/19 05:08:57;;;;;;;12.73;4.90;;;23.80;63.90;;;;;;5058737;28;20497;-50
2022/06/19 05:11:26;;;;;;;11.50;5.33;;;23.80;63.80;;;;;;5059914;28;20460;-49
2022/06/19 05:13:52;;;;;;;13.87;5.40;;;23.90;63.50;;;;;;5062460;28;20471;-50
2022/06/19 05:16:21;;;;;;;12.27;5.90;;;24.00;61.90;;;;;;5063094;28;20483;-50
2022/06/19 05:18:50;;;;;;;10.37;5.50;;;24.00;62.10;;;;;;5046661;28;20880;-50
2022/06/19 05:21:22;;;;;;;12.10;5.57;;;24.10;62.50;;;;;;5031510;28;20458;-50
2022/06/19 05:23:51;;;;;;;12.83;5.73;;;24.20;62.00;;;;;;5061081;28;20489;-50
2022/06/19 05:26:29;;;;;;;12.30;6.40;;;24.30;61.50;;;;;;5060632;28;20477;-50
2022/06/19 05:28:57;;;;;;;15.20;6.53;;;24.30;60.80;;;;;;5061478;28;20969;-50
2022/06/19 05:31:25;;;;;;;12.70;5.13;;;24.40;60.50;;;;;;5060454;28;20548;-50
2022/06/19 05:33:52;;;;;;;22.53;5.80;;;24.40;60.40;;;;;;5043774;28;20544;-50
2022/06/19 05:36:20;;;;;;;14.40;6.53;;;24.50;59.90;;;;;;5062338;28;20465;-50
2022/06/19 05:38:47;;;;;;;10.67;4.97;;;24.60;59.20;;;;;;5048623;28;20591;-50
2022/06/19 05:41:14;;;;;;;14.53;5.20;;;24.70;60.30;;;;;;5061045;28;20496;-50
2022/06/19 05:43:41;;;;;;;11.13;5.30;;;24.80;59.90;;;;;;5061788;28;20811;-50
2022/06/19 05:46:14;;;;;;;14.00;5.53;;;24.80;59.20;;;;;;5063416;28;20613;-50
2022/06/19 05:48:43;;;;;;;14.40;6.00;;;24.90;58.80;;;;;;5064683;28;20462;-49
2022/06/19 05:51:12;;;;;;;11.93;5.60;;;25.00;58.40;;;;;;5061314;28;20461;-50
2022/06/19 05:53:51;;;;;;;10.37;6.03;;;25.00;58.30;;;;;;5061805;28;20461;-50
2022/06/19 05:56:18;;;;;;;13.13;5.10;;;25.10;58.30;;;;;;5061406;28;20449;-50
2022/06/19 05:58:45;;;;;;;18.83;6.40;;;25.20;58.40;;;;;;5062127;28;20456;-49
2022/06/19 06:01:14;;;;;;;16.40;5.63;;;25.30;58.30;;;;;;5044437;28;21061;-49
2022/06/19 06:03:44;;;;;;;16.57;6.37;;;25.30;58.00;;;;;;5045293;28;20453;-50
2022/06/19 06:06:28;;;;;;;10.33;5.00;;;25.40;58.30;;;;;;5057799;28;20453;-50
2022/06/19 06:08:56;;;;;;;9.83;5.93;;;25.50;58.00;;;;;;5058429;28;20924;-48
2022/06/19 06:11:24;;;;;;;12.17;6.83;;;25.60;57.80;;;;;;5063440;28;20488;-48
2022/06/19 06:13:51;;;;;;;13.47;6.20;;;25.80;57.10;;;;;;5050565;28;20873;-48
2022/06/19 06:16:20;;;;;;;12.03;6.77;;;25.90;57.40;;;;;;5057877;28;20466;-48
2022/06/19 06:18:47;;;;;;;12.07;5.63;;;25.90;57.60;;;;;;5060065;28;20490;-48
2022/06/19 06:21:17;;;;;;;12.93;6.20;;;26.00;57.80;;;;;;5050182;28;20484;-48
2022/06/19 06:23:44;;;;;;;18.73;6.60;;;26.10;57.70;;;;;;5061546;28;20493;-48
2022/06/19 06:26:12;;;;;;;14.37;7.10;;;26.20;57.60;;;;;;5063777;28;20466;-48
2022/06/19 06:28:41;;;;;;;10.97;6.87;;;26.30;57.70;;;;;;5060060;28;20511;-48
2022/06/19 06:31:09;;;;;;;14.13;6.30;;;26.40;57.70;;;;;;5048331;28;20445;-48
2022/06/19 06:33:36;;;;;;;11.10;6.30;;;26.50;56.70;;;;;;5060709;28;20491;-48
2022/06/19 06:36:04;;;;;;;14.20;6.20;;;26.60;56.40;;;;;;5060262;28;20981;-49
2022/06/19 06:38:31;;;;;;;14.37;6.23;;;26.70;56.40;;;;;;5060853;28;20460;-48
2022/06/19 06:40:58;;;;;;;16.40;7.47;;;26.90;55.70;;;;;;5034344;28;20494;-48
2022/06/19 06:43:25;;;;;;;13.70;7.60;;;27.00;55.60;;;;;;5042229;28;20457;-48
2022/06/19 06:45:52;;;;;;;10.33;6.97;;;27.10;55.60;;;;;;5059250;28;20481;-48
2022/06/19 06:48:20;;;;;;;8.90;8.00;;;27.20;55.80;;;;;;5046163;28;20498;-48
2022/06/19 06:50:47;;;;;;;15.30;8.80;;;27.30;56.20;;;;;;5055579;28;20971;-49
2022/06/19 06:53:14;;;;;;;8.80;6.97;;;27.40;55.90;;;;;;5058726;28;20888;-49
2022/06/19 06:55:44;;;;;;;11.77;8.77;;;27.60;55.50;;;;;;5056483;28;21493;-49
2022/06/19 06:58:11;;;;;;;10.13;8.60;;;27.80;54.90;;;;;;5051019;28;20974;-50
2022/06/19 07:00:39;;;;;;;11.97;9.83;;;27.90;54.50;;;;;;5056254;28;20963;-49
2022/06/19 07:03:06;;;;;;;9.27;8.33;;;28.10;54.10;;;;;;5052575;28;20461;-49
2022/06/19 07:05:33;;;;;;;10.60;8.53;;;28.20;54.10;;;;;;5058380;28;20460;-49
2022/06/19 07:08:00;;;;;;;13.37;8.97;;;28.30;54.30;;;;;;5044158;28;20837;-49
2022/06/19 07:10:28;;;;;;;12.27;9.50;;;28.50;53.50;;;;;;5055572;28;20966;-49
2022/06/19 07:12:55;;;;;;;11.83;8.97;;;28.60;52.90;;;;;;5048164;28;20611;-50
2022/06/19 07:15:22;;;;;;;11.60;9.50;;;28.70;53.10;;;;;;5053873;28;20297;-50
2022/06/19 07:17:49;;;;;;;14.33;8.63;;;28.90;52.80;;;;;;5045224;28;20641;-49
2022/06/19 07:20:17;;;;;;;9.70;8.80;;;29.10;51.90;;;;;;5046231;28;20599;-50
2022/06/19 07:22:43;;;;;;;11.60;9.17;;;29.20;52.10;;;;;;5050445;28;22151;-49
2022/06/19 07:25:16;;;;;;;12.50;8.37;;;29.40;51.70;;;;;;5040293;28;20252;-50
2022/06/19 07:27:43;;;;;;;9.23;8.03;;;29.50;51.10;;;;;;5061889;28;20210;-49
2022/06/19 07:30:15;;;;;;;11.10;8.90;;;29.60;50.90;;;;;;5052497;28;20215;-50
2022/06/19 07:32:42;;;;;;;10.13;9.03;;;29.70;50.90;;;;;;5058088;28;20211;-49
2022/06/19 07:35:09;;;;;;;14.00;8.90;;;29.90;51.40;;;;;;5041500;28;20217;-50
2022/06/19 07:37:36;;;;;;;10.30;9.02;;;30.00;50.80;;;;;;5036079;28;20200;-50
2022/06/19 07:40:03;;;;;;;11.30;9.50;;;30.20;50.60;;;;;;5039562;28;20245;-49
2022/06/19 07:42:30;;;;;;;9.30;7.72;;;30.40;49.40;;;;;;5041707;28;20238;-50
2022/06/19 07:44:57;;;;;;;9.90;8.88;;;30.50;48.20;;;;;;5051596;28;20215;-49
2022/06/19 07:50:10;;;;;;;18.75;8.95;;;30.70;47.70;;;;;;5054273;28;20277;-50
2022/06/19 07:52:42;;;;;;;9.45;8.43;;;30.80;47.50;;;;;;5038897;28;20211;-49
2022/06/19 07:55:11;;;;;;;9.63;7.35;;;30.90;47.20;;;;;;5047183;28;20207;-49
2022/06/19 07:57:39;;;;;;;11.18;8.60;;;30.90;47.30;;;;;;5045816;28;20611;-49
2022/06/19 08:00:09;;;;;;;10.55;8.50;;;31.00;47.50;;;;;;5053682;28;20227;-49
2022/06/19 08:02:36;;;;;;;9.73;8.73;;;31.10;47.10;;;;;;5050600;28;20226;-49
2022/06/19 08:05:05;;;;;;;10.80;8.40;;;31.20;46.40;;;;;;5062636;28;20213;-49
2022/06/19 08:07:32;;;;;;;8.95;8.25;;;31.30;46.50;;;;;;5058431;28;20203;-49
2022/06/19 08:09:59;;;;;;;9.98;8.93;;;31.30;46.60;;;;;;5041609;28;20292;-48
2022/06/19 08:12:25;;;;;;;9.57;8.52;;;31.40;46.40;;;;;;5052740;28;20773;-49
2022/06/19 08:14:52;;;;;;;10.40;8.35;;;31.50;46.90;;;;;;5043789;28;20215;-49
2022/06/19 08:17:19;;;;;;;10.90;8.13;;;31.60;46.10;;;;;;5056135;28;20306;-50
2022/06/19 08:19:47;;;;;;;9.43;8.52;;;31.80;46.30;;;;;;5053525;28;21821;-48
2022/06/19 08:22:13;;;;;;;12.35;7.97;;;31.90;46.00;;;;;;5062652;28;20683;-49
2022/06/19 08:24:40;;;;;;;11.68;8.93;;;32.00;45.60;;;;;;5064706;28;20199;-49
2022/06/19 08:27:07;;;;;;;8.70;7.80;;;32.20;44.80;;;;;;5061870;28;20641;-49
2022/06/19 08:29:35;;;;;;;12.65;8.18;;;32.30;44.90;;;;;;5062906;28;20213;-49
2022/06/19 08:32:03;;;;;;;8.88;7.85;;;32.40;44.50;;;;;;5060442;28;21200;-49
2022/06/19 08:34:31;;;;;;;10.13;7.80;;;32.40;44.20;;;;;;5058996;28;20206;-49
2022/06/19 08:36:59;;;;;;;7.93;7.25;;;32.50;44.10;;;;;;5055619;28;20687;-49
2022/06/19 08:39:28;;;;;;;8.85;7.45;;;32.60;44.30;;;;;;5058876;28;20213;-49
2022/06/19 08:42:13;;;;;;;14.63;8.02;;;32.70;43.80;;;;;;5066301;28;20943;-49
2022/06/19 08:45:12;;;;;;;12.95;7.97;;;32.80;43.80;;;;;;5047748;28;20210;-49
2022/06/19 08:47:51;;;;;;;8.85;7.28;;;32.90;43.70;;;;;;5059377;28;20199;-49
2022/06/19 08:50:29;;;;;;;10.95;7.50;;;33.00;43.40;;;;;;5056347;28;20217;-50
2022/06/19 08:53:41;;;;;;;8.98;7.75;;;33.10;43.70;;;;;;5063302;28;20213;-49
2022/06/19 08:56:25;;;;;;;11.45;7.72;;;33.20;43.50;;;;;;5042252;28;20207;-49
2022/06/19 08:59:01;;;;;;;10.43;7.47;;;33.30;43.20;;;;;;5061457;28;20207;-49
2022/06/19 09:02:03;;;;;;;11.57;8.32;;;33.40;42.30;;;;;;5036300;28;20226;-49
2022/06/19 09:07:33;;;;;;;9.85;7.32;;;33.60;41.00;;;;;;5056026;28;20191;-50
2022/06/19 09:10:19;;;;;;;10.20;7.53;;;33.70;41.20;;;;;;5062264;28;20659;-50
2022/06/19 09:13:22;;;;;;;11.23;7.32;;;33.90;40.90;;;;;;5045736;28;20235;-49
2022/06/19 09:15:56;;;;;;;8.20;6.75;;;34.00;41.20;;;;;;5065739;28;20215;-49
2022/06/19 09:18:38;;;;;;;8.07;7.18;;;34.10;40.90;;;;;;5063608;28;20730;-49
2022/06/19 09:21:20;;;;;;;11.40;7.03;;;34.20;40.90;;;;;;5058605;28;20329;-50
2022/06/19 09:24:32;;;;;;;8.95;8.05;;;34.20;40.60;;;;;;5045965;28;20206;-49
2022/06/19 09:27:00;;;;;;;14.25;8.48;;;34.30;41.00;;;;;;5058548;28;20211;-50
2022/06/19 09:29:46;;;;;;;12.52;7.95;;;34.60;40.40;;;;;;5062334;28;20202;-50
2022/06/19 09:32:37;;;;;;;8.85;7.95;;;34.70;40.50;;;;;;5056780;28;20302;-49
2022/06/19 09:35:42;;;;;;;10.38;8.45;;;34.80;40.20;;;;;;5065382;28;20534;-50
2022/06/19 09:38:17;;;;;;;8.45;7.57;;;34.90;40.30;;;;;;5063960;28;20249;-49
2022/06/19 09:40:46;;;;;;;13.75;7.63;;;34.90;40.10;;;;;;5032019;28;20269;-49
2022/06/19 09:43:31;;;;;;;11.77;8.32;;;35.00;40.20;;;;;;5046089;28;20225;-50
2022/06/19 09:46:04;;;;;;;10.95;8.40;;;35.10;40.00;;;;;;5048572;28;20604;-49
2022/06/19 09:48:58;;;;;;;12.88;8.07;;;35.20;40.20;;;;;;5047313;28;20209;-50
2022/06/19 09:51:44;;;;;;;9.32;8.45;;;35.30;39.90;;;;;;5050230;28;20233;-50
2022/06/19 09:54:26;;;;;;;9.30;7.97;;;35.40;39.20;;;;;;5060527;28;20627;-50
2022/06/19 09:57:13;;;;;;;11.15;7.65;;;35.50;39.70;;;;;;5034694;28;20217;-50
2022/06/19 09:59:57;;;;;;;12.20;8.40;;;35.60;39.00;;;;;;5048329;28;20218;-48
2022/06/19 10:02:46;;;;;;;9.20;8.15;;;35.80;38.90;;;;;;5048646;28;20230;-48
2022/06/19 10:05:36;;;;;;;9.13;7.97;;;35.90;38.60;;;;;;5065292;28;20302;-48
2022/06/19 10:08:18;;;;;;;12.32;8.02;;;36.00;38.70;;;;;;5061957;28;20959;-48
2022/06/19 10:11:11;;;;;;;9.18;7.78;;;36.20;38.10;;;;;;5059982;28;21461;-48
2022/06/19 10:13:37;;;;;;;12.15;7.45;;;36.30;37.90;;;;;;5057346;28;20281;-48
2022/06/19 10:16:25;;;;;;;9.27;6.28;;;36.50;38.20;;;;;;5045817;28;20301;-48
2022/06/19 10:18:54;;;;;;;11.38;7.80;;;36.70;36.60;;;;;;5046841;28;20211;-48
2022/06/19 10:24:58;;;;;;;8.07;6.50;;;36.70;36.60;;;;;;5061901;28;20293;-49
2022/06/19 10:27:49;;;;;;;10.63;7.38;;;36.70;36.70;;;;;;5062651;28;20243;-48
2022/06/19 10:30:26;;;;;;;7.43;6.72;;;36.70;36.40;;;;;;5046632;28;20215;-49
2022/06/19 10:33:06;;;;;;;11.82;7.60;;;36.60;36.60;;;;;;5058052;28;20621;-49
2022/06/19 10:35:51;;;;;;;9.73;6.90;;;36.40;36.90;;;;;;5044259;28;20830;-49
2022/06/19 10:38:43;;;;;;;10.85;8.43;;;36.30;37.10;;;;;;5046948;28;20211;-49
2022/06/19 10:44:34;;;;;;;11.20;7.13;;;36.00;37.40;;;;;;5058424;28;20507;-49
2022/06/19 10:47:25;;;;;;;9.60;7.20;;;35.80;37.30;;;;;;5063474;28;20682;-49
2022/06/19 10:50:14;;;;;;;14.05;6.65;;;35.70;37.90;;;;;;5062258;28;20206;-50
2022/06/19 10:53:06;;;;;;;8.23;6.75;;;35.50;39.30;;;;;;5056960;28;20211;-49
2022/06/19 10:55:40;;;;;;;7.85;7.13;;;35.30;40.20;;;;;;5048459;28;20208;-49
2022/06/19 10:58:15;;;;;;;7.82;6.70;;;35.10;40.00;;;;;;5060185;28;20199;-49
2022/06/19 11:00:43;;;;;;;9.68;7.03;;;34.90;40.30;;;;;;5060373;28;20655;-49
2022/06/19 11:06:20;;;;;;;10.32;7.13;;;34.60;40.60;;;;;;5062377;28;20214;-50
2022/06/19 11:08:55;;;;;;;10.30;7.70;;;34.40;40.90;;;;;;5061666;28;20210;-50
2022/06/19 11:11:24;;;;;;;11.98;7.65;;;34.20;41.80;;;;;;5060033;28;20211;-49
2022/06/19 11:13:59;;;;;;;12.30;7.63;;;34.10;41.90;;;;;;5062437;28;20213;-50
2022/06/19 11:16:28;;;;;;;13.45;7.45;;;34.00;42.30;;;;;;5046042;28;20214;-49
2022/06/19 11:18:57;;;;;;;10.68;7.30;;;34.00;41.80;;;;;;5060630;28;20226;-50
2022/06/19 11:21:34;;;;;;;8.82;7.25;;;34.00;42.20;;;;;;5059254;28;20691;-50
2022/06/19 11:24:05;;;;;;;10.15;7.20;;;33.90;42.50;;;;;;5030668;28;20234;-50
2022/06/19 11:26:43;;;;;;;9.68;7.38;;;33.80;42.90;;;;;;5061560;28;20207;-49
2022/06/19 11:29:13;;;;;;;8.77;7.00;;;33.80;42.20;;;;;;5055618;28;20285;-50
2022/06/19 11:32:11;;;;;;;13.75;7.72;;;33.80;42.40;;;;;;5062113;28;20507;-50
2022/06/19 11:34:44;;;;;;;9.20;6.25;;;33.70;42.30;;;;;;5056212;28;20211;-50
2022/06/19 11:37:16;;;;;;;10.27;6.88;;;33.60;43.30;;;;;;5027249;28;20203;-49
2022/06/19 11:39:47;;;;;;;7.57;6.47;;;33.50;43.30;;;;;;5047208;28;20229;-50
2022/06/19 11:42:35;;;;;;;7.57;6.82;;;33.50;43.50;;;;;;5046414;28;20566;-50
2022/06/19 11:45:14;;;;;;;8.35;7.55;;;33.40;43.30;;;;;;5059868;28;20223;-49
2022/06/19 11:47:56;;;;;;;11.98;7.93;;;33.30;43.30;;;;;;5061754;28;20244;-50
2022/06/19 11:50:27;;;;;;;12.85;8.77;;;33.30;43.30;;;;;;5058852;28;20245;-49
2022/06/19 11:53:06;;;;;;;12.68;7.80;;;33.20;43.90;;;;;;5049537;28;20264;-50
2022/06/19 11:55:51;;;;;;;8.10;7.38;;;33.10;44.40;;;;;;5058258;28;20674;-50
2022/06/19 11:58:38;;;;;;;8.13;6.60;;;33.20;44.30;;;;;;5046529;28;20199;-49
2022/06/19 12:01:10;;;;;;;13.07;7.68;;;33.20;44.60;;;;;;5063050;28;20231;-50
2022/06/19 12:03:44;;;;;;;13.27;7.90;;;33.20;44.30;;;;;;5058776;28;20290;-49
2022/06/19 12:06:13;;;;;;;10.38;7.78;;;33.20;44.10;;;;;;5058629;28;20207;-50
2022/06/19 12:09:01;;;;;;;11.95;7.10;;;33.10;44.60;;;;;;5062193;28;20285;-50
2022/06/19 12:11:57;;;;;;;8.48;7.07;;;33.10;44.90;;;;;;5059514;28;20214;-49
2022/06/19 12:14:37;;;;;;;9.25;7.85;;;33.10;44.80;;;;;;5057377;28;20210;-50
2022/06/19 12:17:25;;;;;;;12.57;7.13;;;33.10;44.50;;;;;;5048930;28;20676;-49
2022/06/19 12:20:05;;;;;;;9.63;8.63;;;33.10;44.20;;;;;;5060160;28;20692;-50
2022/06/19 12:22:49;;;;;;;11.90;7.63;;;33.10;44.70;;;;;;5038320;28;20231;-50
2022/06/19 12:25:28;;;;;;;10.57;8.02;;;33.00;44.50;;;;;;5027623;28;20703;-50
2022/06/19 12:28:26;;;;;;;9.85;8.02;;;33.10;44.20;;;;;;5042546;28;20199;-49
2022/06/19 12:31:03;;;;;;;8.95;7.50;;;33.00;44.90;;;;;;5038775;28;20216;-49
2022/06/19 12:33:41;;;;;;;10.82;8.43;;;33.00;44.50;;;;;;5052825;28;20215;-50
2022/06/19 12:36:13;;;;;;;9.93;7.28;;;33.00;44.50;;;;;;5058791;28;20576;-50
2022/06/19 12:38:47;;;;;;;12.80;8.02;;;33.00;45.50;;;;;;5062041;28;20215;-50
2022/06/19 12:41:32;;;;;;;8.95;7.40;;;33.00;45.00;;;;;;5060951;28;20229;-50
2022/06/19 12:43:59;;;;;;;11.27;9.02;;;33.00;44.50;;;;;;5057956;28;20729;-49
2022/06/19 12:47:04;;;;;;;10.38;7.80;;;32.90;44.40;;;;;;5059923;28;20211;-49
2022/06/19 12:49:49;;;;;;;10.45;7.45;;;32.90;44.20;;;;;;4986604;28;20205;-50
2022/06/19 12:52:24;;;;;;;10.20;8.07;;;33.00;44.40;;;;;;5054749;28;20744;-50
2022/06/19 12:55:13;;;;;;;14.20;8.45;;;33.00;44.70;;;;;;5056909;28;20724;-50
2022/06/19 12:58:28;;;;;;;11.95;8.07;;;33.10;44.80;;;;;;5057246;28;20210;-50
2022/06/19 13:01:15;;;;;;;11.80;8.07;;;33.10;44.50;;;;;;4974190;28;20256;-50
2022/06/19 13:04:08;;;;;;;10.48;8.23;;;33.20;44.30;;;;;;5059561;28;20330;-50
2022/06/19 13:06:38;;;;;;;10.40;7.57;;;33.20;44.10;;;;;;5036214;28;20207;-50
2022/06/19 13:09:29;;;;;;;13.98;8.40;;;33.40;43.90;;;;;;5064663;28;20207;-47
2022/06/19 13:12:26;;;;;;;15.00;7.65;;;33.40;43.80;;;;;;5060412;28;20207;-47
2022/06/19 13:15:30;;;;;;;12.70;8.68;;;33.50;43.90;;;;;;5050196;28;20210;-47
2022/06/19 13:18:17;;;;;;;10.43;7.53;;;33.60;43.80;;;;;;5064438;28;20213;-47
2022/06/19 13:21:08;;;;;;;15.45;8.77;;;33.70;43.90;;;;;;5051116;28;20623;-47
2022/06/19 13:23:56;;;;;;;12.82;8.68;;;33.70;43.50;;;;;;5064473;28;20209;-47
2022/06/19 13:29:47;;;;;;;8.68;7.78;;;33.90;43.40;;;;;;5050650;28;20248;-47
2022/06/19 13:32:23;;;;;;;12.82;8.75;;;34.00;43.10;;;;;;5065843;28;20642;-47
2022/06/19 13:35:04;;;;;;;10.70;8.82;;;34.10;43.10;;;;;;5065777;28;20214;-47